Flinterborg — PHPH — position and weather

sailwx.info

Track history (hours):
 
Tides and Currents Weather Stations Pressure Air Temp Water Temp Dewpoint Dewpoint Depression Visibility Wind Speed Wind Dir Waves Ship Positions

Flinterborg

Last reported at 2014-Oct-15 05:30 UTC. Time now 2014-Oct-21 19:52 UTC.
Position N 55°39' E 015°32'.

Length 111 m; draft 5.7 m.

Type: Ship. MMSI: 245433000.

Date/timePositionNaut miles runAvg speedWind from/ knotsBaromVisibWave heightAir tempDewpointWater temp
2014-Oct-15 05:30N 55°39' E 015°32'1112.1
2014-Oct-15 04:33N 55°34' E 015°14'1212.4
2014-Oct-15 03:33N 55°28' E 014°55'1212.2
2014-Oct-15 02:33N 55°21' E 014°37'1212.1
2014-Oct-15 01:33N 55°11' E 014°23'1312.3
2014-Oct-15 00:30N 55°02' E 014°07'6112.4
2014-Oct-14 19:33N 54°36' E 012°32'1212.3
2014-Oct-14 18:33N 54°28' E 012°15'1111.3
2014-Oct-14 17:33N 54°25' E 011°56'80 8.8
2014-Oct-14 08:26N 54°17' E 009°39'22 7.5
2014-Oct-14 05:30N 53°59' E 009°17'7 7.5
2014-Oct-14 04:33N 53°54' E 009°09'1 1.3
2014-Oct-14 03:33N 53°53' E 009°07'1 1.0
2014-Oct-14 02:33N 53°53' E 009°06'1111.2
2014-Oct-14 01:34N 53°50' E 008°47'1313.4
2014-Oct-14 00:33N 53°58' E 008°29'1413.6
2014-Oct-13 23:33N 53°59' E 008°06'1313.2
2014-Oct-13 22:33N 54°06' E 007°46'1212.4
2014-Oct-13 21:33N 54°09' E 007°25'4611.6
2014-Oct-13 17:33N 54°07' E 006°06'1110.9
2014-Oct-13 16:33N 54°05' E 005°48'1110.9
2014-Oct-13 15:34N 54°04' E 005°30'1110.8
2014-Oct-13 14:34N 54°02' E 005°11'1110.2
2014-Oct-13 13:28N 54°01' E 004°53'14910.4
2014-Oct-12 23:16N 53°41' E 000°43'911.9
2014-Oct-12 22:33N 53°39' E 000°29'1111.5
2014-Oct-12 21:33N 53°33' E 000°14'1111.5
2014-Oct-12 20:33N 53°36' W 000°04'1010.3
2014-Oct-12 19:33N 53°44' W 000°16'1 0.5
2014-Oct-12 18:29N 53°44' W 000°16'0 0.0
2014-Oct-12 17:29N 53°44' W 000°16'0 0.0
2014-Oct-12 16:28N 53°44' W 000°16'0 0.0
2014-Oct-12 15:31N 53°44' W 000°16'0 0.0
2014-Oct-12 14:30N 53°44' W 000°16'0 0.0
2014-Oct-12 13:33N 53°44' W 000°16'0 0.0
2014-Oct-12 12:29N 53°44' W 000°16'0 0.0
2014-Oct-12 11:32N 53°44' W 000°16'0 0.0
2014-Oct-12 10:32N 53°44' W 000°16'0 0.0
2014-Oct-12 09:31N 53°44' W 000°16'0 0.0
2014-Oct-12 08:31N 53°44' W 000°16'0 0.0
2014-Oct-12 07:30N 53°44' W 000°16'0 0.0
2014-Oct-12 06:33N 53°44' W 000°16'0 0.0
2014-Oct-12 05:29N 53°44' W 000°16'0 0.0
2014-Oct-12 04:29N 53°44' W 000°16'0 0.0
2014-Oct-12 03:32N 53°44' W 000°16'0 0.0
2014-Oct-12 02:31N 53°44' W 000°16'0 0.0
2014-Oct-12 01:31N 53°44' W 000°16'0 0.0
2014-Oct-12 00:33N 53°44' W 000°16'0 0.0
2014-Oct-11 23:33N 53°44' W 000°16'0 0.0
2014-Oct-11 22:32N 53°44' W 000°16'0 0.0
2014-Oct-11 21:32N 53°44' W 000°16'0 0.0
2014-Oct-11 20:28N 53°44' W 000°16'0 0.0
2014-Oct-11 19:16N 53°44' W 000°16'0 0.0
2014-Oct-11 18:31N 53°44' W 000°16'0 0.0
2014-Oct-11 17:30N 53°44' W 000°16'0 0.0
2014-Oct-11 16:33N 53°44' W 000°16'0 0.0
2014-Oct-11 15:29N 53°44' W 000°16'0 0.0
2014-Oct-11 14:26N 53°44' W 000°16'0 0.0
2014-Oct-11 13:28N 53°44' W 000°16'0 0.0
2014-Oct-11 12:31N 53°44' W 000°16'0 0.0
2014-Oct-11 11:28N 53°44' W 000°16'0 0.0
2014-Oct-11 10:33N 53°44' W 000°16'0 0.0
2014-Oct-11 09:33N 53°44' W 000°16'0 0.0
2014-Oct-11 08:32N 53°44' W 000°16'0 0.0
2014-Oct-11 07:32N 53°44' W 000°16'0 0.0
2014-Oct-11 06:31N 53°44' W 000°16'0 0.0
2014-Oct-11 05:22N 53°44' W 000°16'0 0.0
2014-Oct-11 04:24N 53°44' W 000°16'0 0.0
2014-Oct-11 03:30N 53°44' W 000°16'0 0.0
2014-Oct-11 02:33N 53°44' W 000°16'0 0.0
2014-Oct-11 01:32N 53°44' W 000°16'0 0.0
2014-Oct-11 00:20N 53°44' W 000°16'0 0.0
2014-Oct-10 23:28N 53°44' W 000°16'0 0.0
2014-Oct-10 22:31N 53°44' W 000°16'0 0.0
2014-Oct-10 21:25N 53°44' W 000°16'0 0.0
2014-Oct-10 20:33N 53°44' W 000°16'0 0.5
2014-Oct-10 19:33N 53°44' W 000°16'3 2.7
2014-Oct-10 18:33N 53°44' W 000°21'0 0.2
2014-Oct-10 17:33N 53°44' W 000°21'0 0.0
2014-Oct-10 16:33N 53°44' W 000°21'0 0.0
2014-Oct-10 15:34N 53°44' W 000°21'0 0.0
2014-Oct-10 14:33N 53°44' W 000°21'0 0.0
2014-Oct-10 13:33N 53°44' W 000°21'0 0.0
2014-Oct-10 12:33N 53°44' W 000°21'0 0.0
2014-Oct-10 11:34N 53°44' W 000°21'0 0.0
2014-Oct-10 10:33N 53°44' W 000°21'0 0.0
2014-Oct-10 09:33N 53°44' W 000°21'0 0.0
2014-Oct-10 08:33N 53°44' W 000°21'0 0.0
2014-Oct-10 07:33N 53°44' W 000°21'0 0.0
2014-Oct-10 06:33N 53°44' W 000°21'0 0.0
2014-Oct-10 05:33N 53°44' W 000°21'0 0.0
2014-Oct-10 04:33N 53°44' W 000°21'0 0.0
2014-Oct-10 03:33N 53°44' W 000°21'0 0.0
2014-Oct-10 02:33N 53°44' W 000°21'0 0.0
2014-Oct-10 01:33N 53°44' W 000°21'0 0.0
2014-Oct-10 00:33N 53°44' W 000°21'0 0.0
2014-Oct-09 23:33N 53°44' W 000°21'0 0.0
2014-Oct-09 22:33N 53°44' W 000°21'0 0.0
2014-Oct-09 21:34N 53°44' W 000°21'0 0.0
2014-Oct-09 20:33N 53°44' W 000°21'0 0.0
2014-Oct-09 19:34N 53°44' W 000°21'0 0.0
2014-Oct-09 18:33N 53°44' W 000°21'0 0.0
2014-Oct-09 17:33N 53°44' W 000°21'0 0.0
2014-Oct-09 16:33N 53°44' W 000°21'0 0.0
2014-Oct-09 15:33N 53°44' W 000°21'0 0.0
2014-Oct-09 14:33N 53°44' W 000°21'0 0.0
2014-Oct-09 13:33N 53°44' W 000°21'0 0.0
2014-Oct-09 12:33N 53°44' W 000°21'0 0.0
2014-Oct-09 11:32N 53°44' W 000°21'0 0.0
2014-Oct-09 10:33N 53°44' W 000°21'0 0.0
2014-Oct-09 09:33N 53°44' W 000°21'0 0.0
2014-Oct-09 08:33N 53°44' W 000°21'0 0.0
2014-Oct-09 07:34N 53°44' W 000°21'0 0.0
2014-Oct-09 06:33N 53°44' W 000°21'0 0.0
2014-Oct-09 05:33N 53°44' W 000°21'0 0.0
2014-Oct-09 04:33N 53°44' W 000°21'0 0.0
2014-Oct-09 03:33N 53°44' W 000°21'0 0.0
2014-Oct-09 02:33N 53°44' W 000°21'0 0.0
2014-Oct-09 01:33N 53°44' W 000°21'0 0.0
2014-Oct-09 00:33N 53°44' W 000°21'0 0.0
2014-Oct-08 23:34N 53°44' W 000°21'0 0.0
2014-Oct-08 22:33N 53°44' W 000°21'0 0.0
2014-Oct-08 21:33N 53°44' W 000°21'0 0.0
2014-Oct-08 20:33N 53°44' W 000°21'0 0.0
2014-Oct-08 19:33N 53°44' W 000°21'0 0.0
2014-Oct-08 18:33N 53°44' W 000°21'0 0.0
2014-Oct-08 17:33N 53°44' W 000°21'0 0.0
2014-Oct-08 16:33N 53°44' W 000°21'0 0.0
2014-Oct-08 15:34N 53°44' W 000°21'0 0.0
2014-Oct-08 14:32N 53°44' W 000°21'0 0.0
2014-Oct-08 13:33N 53°44' W 000°21'0 0.0
2014-Oct-08 12:34N 53°44' W 000°21'0 0.0
2014-Oct-08 11:34N 53°44' W 000°21'0 0.0
2014-Oct-08 10:33N 53°44' W 000°21'0 0.0
2014-Oct-08 09:33N 53°44' W 000°21'0 0.0
2014-Oct-08 08:33N 53°44' W 000°21'0 0.0
2014-Oct-08 07:33N 53°44' W 000°21'0 0.0
2014-Oct-08 06:33N 53°44' W 000°21'0 0.0
2014-Oct-08 05:33N 53°44' W 000°21'0 0.5
2014-Oct-08 04:33N 53°44' W 000°20'6 6.5
2014-Oct-08 03:33N 53°40' W 000°12'1212.4
2014-Oct-08 02:33N 53°34' E 000°06'7 6.9
2014-Oct-08 01:34N 53°35' E 000°18'5 5.3
2014-Oct-08 00:33N 53°39' E 000°24'6 5.6
2014-Oct-07 23:33N 53°40' E 000°34'5 5.4
2014-Oct-07 22:33N 53°41' E 000°42'4 1.7
2014-Oct-07 20:25N 53°42' E 000°48'144 8.4
2014-Oct-07 03:21N 54°05' E 004°49'911.0
2014-Oct-07 02:33N 54°05' E 005°05'1211.8
2014-Oct-07 01:33N 54°06' E 005°24'1212.2
2014-Oct-07 00:33N 54°08' E 005°45'5012.5
2014-Oct-06 20:33N 54°12' E 007°10'1211.9
2014-Oct-06 19:33N 54°12' E 007°30'1211.7
2014-Oct-06 18:33N 54°07' E 007°48'1211.8
2014-Oct-06 17:33N 54°02' E 008°06'1313.0
2014-Oct-06 16:33N 53°59' E 008°28'1414.2
2014-Oct-06 15:34N 53°51' E 008°47'1312.8
2014-Oct-06 14:33N 53°54' E 009°09'1 0.5
2014-Oct-06 13:33N 53°54' E 009°09'0 0.0
2014-Oct-06 12:33N 53°54' E 009°10'0 0.0
2014-Oct-06 11:33N 53°54' E 009°10'0 0.0
2014-Oct-06 10:32N 53°54' E 009°10'0 0.0
2014-Oct-06 09:33N 53°54' E 009°10'0 0.0
2014-Oct-06 08:33N 53°54' E 009°10'0 0.0
2014-Oct-06 07:33N 53°54' E 009°10'0 0.0
2014-Oct-06 06:33N 53°54' E 009°10'20 6.6
2014-Oct-06 03:33N 54°11' E 009°28'8 8.2
2014-Oct-06 02:33N 54°16' E 009°38'8 8.1
2014-Oct-06 01:33N 54°22' E 009°49'6 6.0
2014-Oct-06 00:33N 54°21' E 009°59'9 2.0
2014-Oct-05 20:06N 54°25' E 010°12'611.4
2014-Oct-05 19:33N 54°30' E 010°18'2512.4
2014-Oct-05 17:33N 54°36' E 010°60'1111.5
2014-Oct-05 16:33N 54°35' E 011°19'1211.7
2014-Oct-05 15:33N 54°30' E 011°38'1211.7
2014-Oct-05 14:33N 54°27' E 011°57'9 9.5
2014-Oct-05 13:33N 54°32' E 012°12'192179.8
2014-Oct-05 12:29N 56°22' E 016°49'13634.7
2014-Oct-05 08:33N 55°00' E 013°35'1212.1
2014-Oct-05 07:33N 55°05' E 013°55'1211.7
2014-Oct-05 06:33N 55°11' E 014°12'1212.0
2014-Oct-05 05:33N 55°20' E 014°27'  
Track history (hours):
 
Tides and Currents Weather Stations Pressure Air Temp Water Temp Dewpoint Dewpoint Depression Visibility Wind Speed Wind Dir Waves Ship Positions

Flinterborg

Last reported at 2014-Oct-15 05:30 UTC. Time now 2014-Oct-21 19:52 UTC.
Position N 55°39' E 015°32'.

Length 111 m; draft 5.7 m.

Type: Ship. MMSI: 245433000.

Date/timePositionNaut miles runAvg speedWind from/ knotsBaromVisibWave heightAir tempDewpointWater temp
2014-Oct-15 05:30N 55°39' E 015°32'1112.1
2014-Oct-15 04:33N 55°34' E 015°14'1212.4
2014-Oct-15 03:33N 55°28' E 014°55'1212.2
2014-Oct-15 02:33N 55°21' E 014°37'1212.1
2014-Oct-15 01:33N 55°11' E 014°23'1312.3
2014-Oct-15 00:30N 55°02' E 014°07'6112.4
2014-Oct-14 19:33N 54°36' E 012°32'1212.3
2014-Oct-14 18:33N 54°28' E 012°15'1111.3
2014-Oct-14 17:33N 54°25' E 011°56'80 8.8
2014-Oct-14 08:26N 54°17' E 009°39'22 7.5
2014-Oct-14 05:30N 53°59' E 009°17'7 7.5
2014-Oct-14 04:33N 53°54' E 009°09'1 1.3
2014-Oct-14 03:33N 53°53' E 009°07'1 1.0
2014-Oct-14 02:33N 53°53' E 009°06'1111.2
2014-Oct-14 01:34N 53°50' E 008°47'1313.4
2014-Oct-14 00:33N 53°58' E 008°29'1413.6
2014-Oct-13 23:33N 53°59' E 008°06'1313.2
2014-Oct-13 22:33N 54°06' E 007°46'1212.4
2014-Oct-13 21:33N 54°09' E 007°25'4611.6
2014-Oct-13 17:33N 54°07' E 006°06'1110.9
2014-Oct-13 16:33N 54°05' E 005°48'1110.9
2014-Oct-13 15:34N 54°04' E 005°30'1110.8
2014-Oct-13 14:34N 54°02' E 005°11'1110.2
2014-Oct-13 13:28N 54°01' E 004°53'14910.4
2014-Oct-12 23:16N 53°41' E 000°43'911.9
2014-Oct-12 22:33N 53°39' E 000°29'1111.5
2014-Oct-12 21:33N 53°33' E 000°14'1111.5
2014-Oct-12 20:33N 53°36' W 000°04'1010.3
2014-Oct-12 19:33N 53°44' W 000°16'1 0.5
2014-Oct-12 18:29N 53°44' W 000°16'0 0.0
2014-Oct-12 17:29N 53°44' W 000°16'0 0.0
2014-Oct-12 16:28N 53°44' W 000°16'0 0.0
2014-Oct-12 15:31N 53°44' W 000°16'0 0.0
2014-Oct-12 14:30N 53°44' W 000°16'0 0.0
2014-Oct-12 13:33N 53°44' W 000°16'0 0.0
2014-Oct-12 12:29N 53°44' W 000°16'0 0.0
2014-Oct-12 11:32N 53°44' W 000°16'0 0.0
2014-Oct-12 10:32N 53°44' W 000°16'0 0.0
2014-Oct-12 09:31N 53°44' W 000°16'0 0.0
2014-Oct-12 08:31N 53°44' W 000°16'0 0.0
2014-Oct-12 07:30N 53°44' W 000°16'0 0.0
2014-Oct-12 06:33N 53°44' W 000°16'0 0.0
2014-Oct-12 05:29N 53°44' W 000°16'0 0.0
2014-Oct-12 04:29N 53°44' W 000°16'0 0.0
2014-Oct-12 03:32N 53°44' W 000°16'0 0.0
2014-Oct-12 02:31N 53°44' W 000°16'0 0.0
2014-Oct-12 01:31N 53°44' W 000°16'0 0.0
2014-Oct-12 00:33N 53°44' W 000°16'0 0.0
2014-Oct-11 23:33N 53°44' W 000°16'0 0.0
2014-Oct-11 22:32N 53°44' W 000°16'0 0.0
2014-Oct-11 21:32N 53°44' W 000°16'0 0.0
2014-Oct-11 20:28N 53°44' W 000°16'0 0.0
2014-Oct-11 19:16N 53°44' W 000°16'0 0.0
2014-Oct-11 18:31N 53°44' W 000°16'0 0.0
2014-Oct-11 17:30N 53°44' W 000°16'0 0.0
2014-Oct-11 16:33N 53°44' W 000°16'0 0.0
2014-Oct-11 15:29N 53°44' W 000°16'0 0.0
2014-Oct-11 14:26N 53°44' W 000°16'0 0.0
2014-Oct-11 13:28N 53°44' W 000°16'0 0.0
2014-Oct-11 12:31N 53°44' W 000°16'0 0.0
2014-Oct-11 11:28N 53°44' W 000°16'0 0.0
2014-Oct-11 10:33N 53°44' W 000°16'0 0.0
2014-Oct-11 09:33N 53°44' W 000°16'0 0.0
2014-Oct-11 08:32N 53°44' W 000°16'0 0.0
2014-Oct-11 07:32N 53°44' W 000°16'0 0.0
2014-Oct-11 06:31N 53°44' W 000°16'0 0.0
2014-Oct-11 05:22N 53°44' W 000°16'0 0.0
2014-Oct-11 04:24N 53°44' W 000°16'0 0.0
2014-Oct-11 03:30N 53°44' W 000°16'0 0.0
2014-Oct-11 02:33N 53°44' W 000°16'0 0.0
2014-Oct-11 01:32N 53°44' W 000°16'0 0.0
2014-Oct-11 00:20N 53°44' W 000°16'0 0.0
2014-Oct-10 23:28N 53°44' W 000°16'0 0.0
2014-Oct-10 22:31N 53°44' W 000°16'0 0.0
2014-Oct-10 21:25N 53°44' W 000°16'0 0.0
2014-Oct-10 20:33N 53°44' W 000°16'0 0.5
2014-Oct-10 19:33N 53°44' W 000°16'3 2.7
2014-Oct-10 18:33N 53°44' W 000°21'0 0.2
2014-Oct-10 17:33N 53°44' W 000°21'0 0.0
2014-Oct-10 16:33N 53°44' W 000°21'0 0.0
2014-Oct-10 15:34N 53°44' W 000°21'0 0.0
2014-Oct-10 14:33N 53°44' W 000°21'0 0.0
2014-Oct-10 13:33N 53°44' W 000°21'0 0.0
2014-Oct-10 12:33N 53°44' W 000°21'0 0.0
2014-Oct-10 11:34N 53°44' W 000°21'0 0.0
2014-Oct-10 10:33N 53°44' W 000°21'0 0.0
2014-Oct-10 09:33N 53°44' W 000°21'0 0.0
2014-Oct-10 08:33N 53°44' W 000°21'0 0.0
2014-Oct-10 07:33N 53°44' W 000°21'0 0.0
2014-Oct-10 06:33N 53°44' W 000°21'0 0.0
2014-Oct-10 05:33N 53°44' W 000°21'0 0.0
2014-Oct-10 04:33N 53°44' W 000°21'0 0.0
2014-Oct-10 03:33N 53°44' W 000°21'0 0.0
2014-Oct-10 02:33N 53°44' W 000°21'0 0.0
2014-Oct-10 01:33N 53°44' W 000°21'0 0.0
2014-Oct-10 00:33N 53°44' W 000°21'0 0.0
2014-Oct-09 23:33N 53°44' W 000°21'0 0.0
2014-Oct-09 22:33N 53°44' W 000°21'0 0.0
2014-Oct-09 21:34N 53°44' W 000°21'0 0.0
2014-Oct-09 20:33N 53°44' W 000°21'0 0.0
2014-Oct-09 19:34N 53°44' W 000°21'0 0.0
2014-Oct-09 18:33N 53°44' W 000°21'0 0.0
2014-Oct-09 17:33N 53°44' W 000°21'0 0.0
2014-Oct-09 16:33N 53°44' W 000°21'0 0.0
2014-Oct-09 15:33N 53°44' W 000°21'0 0.0
2014-Oct-09 14:33N 53°44' W 000°21'0 0.0
2014-Oct-09 13:33N 53°44' W 000°21'0 0.0
2014-Oct-09 12:33N 53°44' W 000°21'0 0.0
2014-Oct-09 11:32N 53°44' W 000°21'0 0.0
2014-Oct-09 10:33N 53°44' W 000°21'0 0.0
2014-Oct-09 09:33N 53°44' W 000°21'0 0.0
2014-Oct-09 08:33N 53°44' W 000°21'0 0.0
2014-Oct-09 07:34N 53°44' W 000°21'0 0.0
2014-Oct-09 06:33N 53°44' W 000°21'0 0.0
2014-Oct-09 05:33N 53°44' W 000°21'0 0.0
2014-Oct-09 04:33N 53°44' W 000°21'0 0.0
2014-Oct-09 03:33N 53°44' W 000°21'0 0.0
2014-Oct-09 02:33N 53°44' W 000°21'0 0.0
2014-Oct-09 01:33N 53°44' W 000°21'0 0.0
2014-Oct-09 00:33N 53°44' W 000°21'0 0.0
2014-Oct-08 23:34N 53°44' W 000°21'0 0.0
2014-Oct-08 22:33N 53°44' W 000°21'0 0.0
2014-Oct-08 21:33N 53°44' W 000°21'0 0.0
2014-Oct-08 20:33N 53°44' W 000°21'0 0.0
2014-Oct-08 19:33N 53°44' W 000°21'0 0.0
2014-Oct-08 18:33N 53°44' W 000°21'0 0.0
2014-Oct-08 17:33N 53°44' W 000°21'0 0.0
2014-Oct-08 16:33N 53°44' W 000°21'0 0.0
2014-Oct-08 15:34N 53°44' W 000°21'0 0.0
2014-Oct-08 14:32N 53°44' W 000°21'0 0.0
2014-Oct-08 13:33N 53°44' W 000°21'0 0.0
2014-Oct-08 12:34N 53°44' W 000°21'0 0.0
2014-Oct-08 11:34N 53°44' W 000°21'0 0.0
2014-Oct-08 10:33N 53°44' W 000°21'0 0.0
2014-Oct-08 09:33N 53°44' W 000°21'0 0.0
2014-Oct-08 08:33N 53°44' W 000°21'0 0.0
2014-Oct-08 07:33N 53°44' W 000°21'0 0.0
2014-Oct-08 06:33N 53°44' W 000°21'0 0.0
2014-Oct-08 05:33N 53°44' W 000°21'0 0.5
2014-Oct-08 04:33N 53°44' W 000°20'6 6.5
2014-Oct-08 03:33N 53°40' W 000°12'1212.4
2014-Oct-08 02:33N 53°34' E 000°06'7 6.9
2014-Oct-08 01:34N 53°35' E 000°18'5 5.3
2014-Oct-08 00:33N 53°39' E 000°24'6 5.6
2014-Oct-07 23:33N 53°40' E 000°34'5 5.4
2014-Oct-07 22:33N 53°41' E 000°42'4 1.7
2014-Oct-07 20:25N 53°42' E 000°48'144 8.4
2014-Oct-07 03:21N 54°05' E 004°49'911.0
2014-Oct-07 02:33N 54°05' E 005°05'1211.8
2014-Oct-07 01:33N 54°06' E 005°24'1212.2
2014-Oct-07 00:33N 54°08' E 005°45'5012.5
2014-Oct-06 20:33N 54°12' E 007°10'1211.9
2014-Oct-06 19:33N 54°12' E 007°30'1211.7
2014-Oct-06 18:33N 54°07' E 007°48'1211.8
2014-Oct-06 17:33N 54°02' E 008°06'1313.0
2014-Oct-06 16:33N 53°59' E 008°28'1414.2
2014-Oct-06 15:34N 53°51' E 008°47'1312.8
2014-Oct-06 14:33N 53°54' E 009°09'1 0.5
2014-Oct-06 13:33N 53°54' E 009°09'0 0.0
2014-Oct-06 12:33N 53°54' E 009°10'0 0.0
2014-Oct-06 11:33N 53°54' E 009°10'0 0.0
2014-Oct-06 10:32N 53°54' E 009°10'0 0.0
2014-Oct-06 09:33N 53°54' E 009°10'0 0.0
2014-Oct-06 08:33N 53°54' E 009°10'0 0.0
2014-Oct-06 07:33N 53°54' E 009°10'0 0.0
2014-Oct-06 06:33N 53°54' E 009°10'20 6.6
2014-Oct-06 03:33N 54°11' E 009°28'8 8.2
2014-Oct-06 02:33N 54°16' E 009°38'8 8.1
2014-Oct-06 01:33N 54°22' E 009°49'6 6.0
2014-Oct-06 00:33N 54°21' E 009°59'9 2.0
2014-Oct-05 20:06N 54°25' E 010°12'611.4
2014-Oct-05 19:33N 54°30' E 010°18'2512.4
2014-Oct-05 17:33N 54°36' E 010°60'1111.5
2014-Oct-05 16:33N 54°35' E 011°19'1211.7
2014-Oct-05 15:33N 54°30' E 011°38'1211.7
2014-Oct-05 14:33N 54°27' E 011°57'9 9.5
2014-Oct-05 13:33N 54°32' E 012°12'192179.8
2014-Oct-05 12:29N 56°22' E 016°49'13634.7
2014-Oct-05 08:33N 55°00' E 013°35'1212.1
2014-Oct-05 07:33N 55°05' E 013°55'1211.7
2014-Oct-05 06:33N 55°11' E 014°12'1212.0
2014-Oct-05 05:33N 55°20' E 014°27'  

Dump ship's entire track history